Flight Track Log - Related Links

Times and Time Zones

All times are in EST time to prevent confusion due to time zone crossing. See the VRD416 flight status page for this flight to view local times or setup timezone preferences in your user account.

Time Position Orientation Groundspeed Altitude Reporting Facility
EST Latitude Longitude Course Direction KTS MPH feet Rate Location/Type
Fri 07:36:22 PM 33.9453 -118.4756 48° Northeast 161 185 2,100  Level Los Angeles Center
Fri 07:36:44 PM 33.9451 -118.5006 270° West 213 245 2,900 2,032 Climbing FlightAware ADS-B
Fri 07:37:24 PM 33.9436 -118.5486 268° West 215 247 4,200 2,491 Climbing Los Angeles Center
Fri 07:37:37 PM 33.9411 -118.5702 255° West 235 270 5,100 4,182 Climbing FlightAware ADS-B
Fri 07:37:57 PM 33.9271 -118.5885 208° Southwest 225 259 6,500 3,600 Climbing FlightAware ADS-B
Fri 07:38:17 PM 33.9065 -118.5905 166° South 241 277 7,500 2,069 Climbing FlightAware ADS-B
Fri 07:38:26 PM 33.9022 -118.5864 217° Southwest 232 267 7,500 3,500 Level Los Angeles Center
Fri 07:38:29 PM 33.8934 -118.5816 139° Southeast 252 290 8,200 6,545 Climbing FlightAware ADS-B
Fri 07:38:37 PM 33.8880 -118.5742 129° Southeast 253 291 8,700 3,300 Climbing FlightAware ADS-B
Fri 07:38:49 PM 33.8830 -118.5608 108° East 270 311 9,300 2,118 Climbing FlightAware ADS-B
Fri 07:39:28 PM 33.9003 -118.4986 92° East 302 348 10,500 2,079 Climbing Los Angeles Center
Fri 07:40:30 PM 33.9517 -118.4006 58° Northeast 327 376 12,800 2,177 Climbing Los Angeles Center
Fri 07:41:00 PM 34.0036 -118.2363 48° Northeast  Level Estimated
Fri 07:41:32 PM 34.0078 -118.3008 56° Northeast 346 398 15,000  Level Los Angeles Center
Fri 07:47:04 PM 34.3590 -117.6277 67° East 471 542 23,100 1,537 Climbing FlightAware ADS-B (KBNG)
Fri 07:47:35 PM 34.3797 -117.5669 67° East 472 543 24,300 1,059 Climbing FlightAware ADS-B (KBNG)
Fri 07:48:46 PM 34.4514 -117.4247 67° East 490 564 24,900 902 Climbing Los Angeles Center
Fri 07:49:48 PM 34.5636 -117.2719 48° Northeast 508 585 26,300 970 Climbing Los Angeles Center
Fri 07:55:59 PM 35.1794 -116.4306 49° Northeast 550 633 31,900 914 Climbing FlightAware ADS-B
Fri 07:56:35 PM 35.2404 -116.3461 49° Northeast 558 642 32,500 1,000 Climbing FlightAware ADS-B
Fri 07:57:11 PM 35.3004 -116.2626 49° Northeast 556 640 33,100 986 Climbing FlightAware ADS-B
Fri 07:57:48 PM 35.3641 -116.1739 49° Northeast 547 629 33,700 930 Climbing FlightAware ADS-B
Fri 07:58:22 PM 35.4216 -116.0938 50° Northeast 543 625 34,200 1,029 Climbing FlightAware ADS-B
Fri 07:58:58 PM 35.4814 -116.0102 50° Northeast 541 623 34,900 686 Climbing FlightAware ADS-B
Fri 07:59:32 PM 35.5378 -115.9308 50° Northeast 544 626 35,000 80 Climbing FlightAware ADS-B
Fri 08:00:13 PM 35.6054 -115.8354 50° Northeast 544 626 35,000  Level FlightAware ADS-B
Fri 08:00:48 PM 35.6641 -115.7525 49° Northeast 547 629 35,000  Level FlightAware ADS-B
Fri 08:01:24 PM 35.7240 -115.6677 49° Northeast 542 624 35,000  Level FlightAware ADS-B
Fri 08:02:00 PM 35.7828 -115.5844 50° Northeast 529 609 35,000  Level FlightAware ADS-B
Fri 08:02:34 PM 35.8249 -115.5004 68° East 520 598 35,000  Level FlightAware ADS-B
Fri 08:03:14 PM 35.8618 -115.3886 68° East 525 604 35,000 54 Level FlightAware ADS-B
Fri 08:04:26 PM 35.9287 -115.1894 69° East 530 610 35,100 55 Climbing FlightAware ADS-B
Fri 08:05:03 PM 35.9630 -115.0865 69° East 524 603 35,100 -85 Level FlightAware ADS-B
Fri 08:05:37 PM 35.9947 -114.9913 69° East 528 608 35,000 83 Descending FlightAware ADS-B
Fri 08:07:27 PM 36.0873 -114.6841 81° East 506 582 35,300 297 Climbing FlightAware ADS-B
Fri 08:08:39 PM 36.1202 -114.4766 71° East 535 616 35,900 566 Climbing FlightAware ADS-B
Fri 08:09:13 PM 36.1535 -114.3787 67° East 541 623 36,300 327 Climbing FlightAware ADS-B
Fri 08:10:29 PM 36.2271 -114.1583 68° East 556 640 36,500 372 Climbing FlightAware ADS-B
Fri 08:11:06 PM 36.2627 -114.0511 68° East 552 635 37,000 417 Climbing FlightAware ADS-B
Fri 08:11:41 PM 36.2972 -113.9459 68° East 555 639 37,000  Level FlightAware ADS-B
Fri 08:12:12 PM 36.3266 -113.8560 68° East 557 641 37,000  Level FlightAware ADS-B
Fri 08:12:45 PM 36.3335 -113.8351 68° East 556 640 37,000  Level FlightAware ADS-B
Fri 08:13:45 PM 36.4134 -113.5909 68° East 562 647 37,000 50 Level FlightAware ADS-B
Fri 08:14:46 PM 36.4741 -113.4035 68° East 563 648 37,100 65 Climbing FlightAware ADS-B
Fri 08:15:17 PM 36.5059 -113.3052 68° East 561 646 37,100 -94 Level FlightAware ADS-B
Fri 08:15:50 PM 36.5378 -113.2062 68° East 563 648 37,000 -90 Descending FlightAware ADS-B
Fri 08:16:24 PM 36.5699 -113.1061 68° East 564 649 37,000  Level FlightAware ADS-B
Fri 08:17:06 PM 36.6104 -112.9788 69° East 558 642 37,000  Level FlightAware ADS-B
Fri 08:17:58 PM 36.6589 -112.8257 69° East 560 644 37,000  Level FlightAware ADS-B
Fri 08:18:58 PM 36.7168 -112.6423 70° East 556 640 37,000  Level FlightAware ADS-B
Fri 08:20:13 PM 36.7867 -112.4190 70° East 557 641 37,000  Level FlightAware ADS-B
Fri 08:20:50 PM 36.8215 -112.3070 70° East 556 640 37,000  Level FlightAware ADS-B
Fri 08:21:25 PM 36.8541 -112.2020 70° East 557 641 37,000  Level FlightAware ADS-B
Fri 08:22:15 PM 36.8991 -112.0563 69° East 560 644 37,000  Level FlightAware ADS-B
Fri 08:23:14 PM 36.9540 -111.8774 69° East 558 642 37,000  Level FlightAware ADS-B
Fri 08:24:22 PM 37.0177 -111.6683 69° East 555 639 37,000  Level FlightAware ADS-B
Fri 08:25:32 PM 37.0812 -111.4592 69° East 558 642 37,000  Level FlightAware ADS-B
Fri 08:26:33 PM 37.1356 -111.2784 70° East 560 644 37,000  Level FlightAware ADS-B
Fri 08:27:34 PM 37.1917 -111.0903 70° East 557 641 37,000  Level FlightAware ADS-B
Fri 08:28:38 PM 37.2491 -110.8963 70° East 556 640 37,000  Level FlightAware ADS-B
Fri 08:29:40 PM 37.3041 -110.7098 70° East 557 641 37,000  Level FlightAware ADS-B
Fri 08:31:00 PM 37.3702 -110.4832 70° East 553 636 37,000  Level FlightAware ADS-B (KGUC)
Fri 08:31:48 PM 37.4163 -110.3237 70° East 552 635 37,000  Level FlightAware ADS-B
Fri 08:32:49 PM 37.4693 -110.1402 70° East 551 634 37,000  Level FlightAware ADS-B
Fri 08:33:38 PM 37.5108 -109.9952 70° East 552 635 37,000  Level FlightAware ADS-B
Fri 08:34:13 PM 37.5384 -109.8991 70° East 555 639 37,000  Level FlightAware ADS-B
Fri 08:34:47 PM 37.5716 -109.7826 70° East 556 640 37,000  Level FlightAware ADS-B
Fri 08:35:22 PM 37.6013 -109.6763 71° East 558 642 37,000  Level FlightAware ADS-B
Fri 08:36:01 PM 37.6352 -109.5558 71° East 557 641 37,000 86 Level FlightAware ADS-B (KGUC)
Fri 08:36:32 PM 37.6615 -109.4627 71° East 556 640 37,100  Climbing FlightAware ADS-B
Fri 08:37:17 PM 37.6973 -109.3356 71° East 555 639 37,000 -80 Descending FlightAware ADS-B
Fri 08:37:47 PM 37.7246 -109.2374 71° East 555 639 37,000  Level FlightAware ADS-B
Fri 08:38:19 PM 37.7504 -109.1443 71° East 554 638 37,000  Level FlightAware ADS-B
Fri 08:38:49 PM 37.7782 -109.0435 71° East 554 638 37,000  Level FlightAware ADS-B
Fri 08:39:20 PM 37.8041 -108.9483 71° East 556 640 37,000  Level FlightAware ADS-B
Fri 08:39:53 PM 37.8273 -108.8459 75° East 556 640 37,000  Level FlightAware ADS-B (KGUC)
Fri 08:40:37 PM 37.8560 -108.7112 75° East 559 643 37,000  Level FlightAware ADS-B
Fri 08:41:10 PM 37.8791 -108.6034 75° East 562 647 37,000  Level FlightAware ADS-B
Fri 08:41:43 PM 37.9009 -108.5001 75° East 559 643 37,000  Level FlightAware ADS-B
Fri 08:42:14 PM 37.9211 -108.4042 75° East 556 640 37,000 98 Level FlightAware ADS-B (KGUC)
Fri 08:42:44 PM 37.9411 -108.3078 75° East 554 638 37,100  Climbing FlightAware ADS-B
Fri 08:43:15 PM 37.9612 -108.2118 75° East 551 634 37,000 -95 Descending FlightAware ADS-B
Fri 08:43:47 PM 37.9823 -108.1109 75° East 551 634 37,000  Level FlightAware ADS-B
Fri 08:44:23 PM 38.0057 -107.9981 76° East 554 638 37,000  Level FlightAware ADS-B (KGUC)
Fri 08:44:35 PM 38.0130 -107.9626 76° East 554 638 37,000  Level FlightAware ADS-B
Fri 08:45:10 PM 38.0350 -107.8557 75° East 553 636 37,000  Level FlightAware ADS-B (KGUC)
Fri 08:45:43 PM 38.0572 -107.7474 76° East 555 639 37,000  Level FlightAware ADS-B
Fri 08:46:13 PM 38.0765 -107.6530 76° East 551 634 37,000  Level FlightAware ADS-B (KGUC)
Fri 08:46:49 PM 38.0985 -107.5440 76° East 550 633 37,000  Level FlightAware ADS-B
Fri 08:47:21 PM 38.1190 -107.4424 76° East 553 636 37,000  Level FlightAware ADS-B
Fri 08:47:53 PM 38.1392 -107.3420 76° East 553 636 37,000  Level FlightAware ADS-B (KGUC)
Fri 08:48:24 PM 38.1585 -107.2449 76° East 553 636 37,000  Level FlightAware ADS-B (KGUC)
Fri 08:49:13 PM 38.1896 -107.0884 76° East 556 640 37,000  Level FlightAware ADS-B (KGUC)
Fri 08:49:43 PM 38.2074 -106.9979 76° East 557 641 37,000  Level FlightAware ADS-B (KGUC)
Fri 08:50:17 PM 38.2277 -106.8946 76° East 556 640 37,000 85 Level FlightAware ADS-B
Fri 08:50:54 PM 38.2504 -106.7783 76° East 556 640 37,100  Climbing FlightAware ADS-B (KGUC)
Fri 08:51:29 PM 38.2740 -106.6571 76° East 557 641 37,000 -90 Descending FlightAware ADS-B (KANK)
Fri 08:52:01 PM 38.2920 -106.5636 76° East 558 642 37,000  Level FlightAware ADS-B (KEIK)
Fri 08:52:31 PM 38.3113 -106.4634 76° East 556 640 37,000  Level FlightAware ADS-B (KEIK)
Fri 08:53:03 PM 38.3308 -106.3612 76° East 556 640 37,000  Level FlightAware ADS-B (KGUC)
Fri 08:53:38 PM 38.3515 -106.2522 77° East 555 639 37,000  Level FlightAware ADS-B
Fri 08:54:16 PM 38.3750 -106.1282 77° East 557 641 37,000  Level FlightAware ADS-B (KEIK)
Fri 08:54:49 PM 38.3942 -106.0253 77° East 559 643 37,000  Level FlightAware ADS-B (KEIK)
Fri 08:55:21 PM 38.4051 -105.9674 77° East 555 639 37,000  Level FlightAware ADS-B (KANK)
Fri 08:55:52 PM 38.4321 -105.8224 77° East 556 640 37,000  Level FlightAware ADS-B (KEIK)
Fri 08:56:32 PM 38.4525 -105.7125 77° East 556 640 37,000 85 Level FlightAware ADS-B (KEIK)
Fri 08:57:03 PM 38.4738 -105.5966 77° East 559 643 37,100 85 Climbing FlightAware ADS-B (KEIK)
Fri 08:57:43 PM 38.4960 -105.4747 77° East 556 640 37,100 -86 Level FlightAware ADS-B (KEIK)
Fri 08:58:13 PM 38.5134 -105.3791 77° East 553 636 37,000 -86 Descending FlightAware ADS-B
Fri 08:58:53 PM 38.5361 -105.2540 77° East 552 635 37,000  Level FlightAware ADS-B (KEIK)
Fri 08:59:28 PM 38.5480 -105.1877 77° East 553 636 37,000  Level FlightAware ADS-B
Fri 08:59:58 PM 38.5746 -105.0391 77° East 554 638 37,000  Level FlightAware ADS-B
Fri 09:00:30 PM 38.5923 -104.9396 77° East 554 638 37,000  Level FlightAware ADS-B (KEIK)
Fri 09:01:09 PM 38.6113 -104.8323 77° East 561 646 37,000  Level FlightAware ADS-B (KEIK)
Fri 09:01:40 PM 38.6321 -104.7139 77° East 561 646 37,000 98 Level FlightAware ADS-B
Fri 09:02:10 PM 38.6471 -104.6279 77° East 559 643 37,100  Climbing FlightAware ADS-B (KEIK)
Fri 09:02:40 PM 38.6652 -104.5239 78° East 557 641 37,000 -76 Descending FlightAware ADS-B (KEIK)
Fri 09:03:29 PM 38.6916 -104.3704 78° East 557 641 37,000  Level FlightAware ADS-B
Fri 09:04:01 PM 38.7107 -104.2588 78° East 560 644 37,000  Level FlightAware ADS-B (KEIK)
Fri 09:04:31 PM 38.7259 -104.1700 78° East 559 643 37,000  Level FlightAware ADS-B (KEIK)
Fri 09:05:12 PM 38.7492 -104.0318 78° East 559 643 37,000  Level FlightAware ADS-B (KEIK)
Fri 09:05:43 PM 38.7638 -103.9455 78° East 562 647 37,000  Level FlightAware ADS-B (KEIK)
Fri 09:06:13 PM 38.7822 -103.8357 78° East 564 649 37,000 97 Level FlightAware ADS-B (KEIK)
Fri 09:06:45 PM 38.7987 -103.7364 78° East 561 646 37,100  Climbing FlightAware ADS-B
Fri 09:07:19 PM 38.8130 -103.6501 78° East 559 643 37,000 -88 Descending FlightAware ADS-B
Fri 09:07:53 PM 38.8306 -103.5393 80° East 560 644 37,000  Level FlightAware ADS-B (KEIK)
Fri 09:08:32 PM 38.8525 -103.3829 80° East 559 643 37,000  Level FlightAware ADS-B (KEIK)
Fri 09:09:13 PM 38.8696 -103.2633 80° East 555 639 37,000  Level FlightAware ADS-B
Fri 09:09:45 PM 38.8863 -103.1470 80° East 553 636 37,000  Level FlightAware ADS-B
Fri 09:10:26 PM 38.9030 -103.0295 80° East 553 636 37,000  Level FlightAware ADS-B
Fri 09:10:56 PM 38.9186 -102.9186 80° East 556 640 37,000  Level FlightAware ADS-B (KEIK)
Fri 09:11:27 PM 38.9319 -102.8240 80° East 556 640 37,000  Level FlightAware ADS-B (KEIK)
Fri 09:12:04 PM 38.9497 -102.6964 80° East 558 642 37,000  Level FlightAware ADS-B (KEIK)
Fri 09:12:50 PM 38.9689 -102.5570 80° East 559 643 37,000  Level FlightAware ADS-B (KEIK)
Fri 09:13:23 PM 38.9840 -102.4458 80° East 558 642 37,000  Level FlightAware ADS-B
Fri 09:13:58 PM 38.9990 -102.3357 80° East 559 643 37,000  Level FlightAware ADS-B (KEIK)
Fri 09:14:30 PM 39.0138 -102.2255 80° East 558 642 37,000  Level FlightAware ADS-B
Fri 09:15:11 PM 39.0324 -102.0870 80° East 559 643 37,000  Level FlightAware ADS-B (KEIK)
Fri 09:16:11 PM 39.0584 -101.8893 81° East 561 646 37,000  Level FlightAware ADS-B (KEIK)
Fri 09:16:41 PM 39.0707 -101.7947 81° East 561 646 37,000  Level FlightAware ADS-B (KEIK)
Fri 09:17:18 PM 39.0870 -101.6686 81° East 561 646 37,000  Level FlightAware ADS-B (KEIK)
Fri 09:17:49 PM 39.0987 -101.5772 81° East 563 648 37,000  Level FlightAware ADS-B
Fri 09:18:25 PM 39.1150 -101.4496 81° East 563 648 37,000  Level FlightAware ADS-B (KEIK)
Fri 09:18:55 PM 39.1267 -101.3579 81° East 564 649 37,000  Level FlightAware ADS-B
Fri 09:19:38 PM 39.1422 -101.2341 81° East 561 646 37,000  Level FlightAware ADS-B
Fri 09:20:22 PM 39.1618 -101.0767 81° East 559 643 37,000  Level FlightAware ADS-B
Fri 09:21:17 PM 39.1847 -100.8907 81° East 559 643 37,000  Level FlightAware ADS-B
Fri 09:22:07 PM 39.2047 -100.7264 81° East 559 643 37,000  Level FlightAware ADS-B
Fri 09:22:54 PM 39.2230 -100.5733 81° East 562 647 37,000  Level FlightAware ADS-B
Fri 09:23:37 PM 39.2402 -100.4288 81° East 563 648 37,000  Level FlightAware ADS-B
Fri 09:24:47 PM 39.2669 -100.1996 82° East 564 649 37,000  Level FlightAware ADS-B
Fri 09:25:30 PM 39.2837 -100.0537 82° East 564 649 37,000  Level FlightAware ADS-B
Fri 09:26:29 PM 39.2753 -100.1267 82° East 566 651 37,000  Level FlightAware ADS-B
Fri 09:27:00 PM 39.3172 -99.7644 82° East 561 646 37,000  Level Denver Center
Fri 09:28:02 PM 39.3381 -99.5731 82° East 562 647 37,000  Level Denver Center
Fri 09:29:04 PM 39.3619 -99.3519 82° East 561 646 37,000  Level Denver Center
Fri 09:30:06 PM 39.3822 -99.1633 82° East 556 640 37,000  Level Denver Center
Fri 09:31:08 PM 39.4064 -98.9342 82° East 574 661 37,000  Level Denver Center
Fri 09:32:10 PM 39.4250 -98.7581 82° East 574 661 37,000  Level Denver Center
Fri 09:33:11 PM 39.4500 -98.5122 82° East 574 661 37,000  Level Denver Center
Fri 09:34:13 PM 39.4700 -98.3078 83° East 574 661 37,000  Level Denver Center
Fri 09:35:15 PM 39.4908 -98.1042 82° East 573 659 37,000 41 Level Denver Center
Fri 09:36:38 PM 39.5161 -97.8153 83° East 569 655 37,100  Climbing Kansas City Center
Fri 09:37:39 PM 39.5297 -97.6128 85° East 565 650 37,000 -49 Descending Kansas City Center
Fri 09:38:41 PM 39.5442 -97.4103 85° East 565 650 37,000  Level Kansas City Center
Fri 09:39:42 PM 39.5583 -97.2078 85° East 565 650 37,000  Level Kansas City Center
Fri 09:40:43 PM 39.5747 -96.9861 84° East 565 650 37,000  Level Kansas City Center
Fri 09:41:45 PM 39.5856 -96.7947 86° East 564 649 37,000  Level Kansas City Center
Fri 09:42:46 PM 39.6011 -96.5706 85° East 561 646 37,000  Level Kansas City Center
Fri 09:43:48 PM 39.6131 -96.3797 85° East 558 642 37,000  Level Kansas City Center
Fri 09:44:49 PM 39.6242 -96.1867 86° East 558 642 37,000  Level Kansas City Center
Fri 09:45:50 PM 39.6381 -95.9608 85° East 558 642 37,000  Level Kansas City Center
Fri 09:46:52 PM 39.6500 -95.7678 85° East 559 643 37,000  Level Kansas City Center
Fri 09:47:53 PM 39.6622 -95.5742 85° East 560 644 37,000  Level Kansas City Center
Fri 09:48:54 PM 39.6733 -95.3503 86° East 557 641 37,000  Level Kansas City Center
Fri 09:49:56 PM 39.6844 -95.1361 86° East 557 641 37,000  Level Kansas City Center
Fri 09:50:57 PM 39.6931 -94.9661 86° East 553 636 37,000 49 Level Kansas City Center
Fri 09:51:58 PM 39.7044 -94.7425 86° East 553 636 37,100  Climbing Kansas City Center
Fri 09:53:00 PM 39.7139 -94.5525 86° East 553 636 37,000 -49 Descending Kansas City Center
Fri 09:54:01 PM 39.7233 -94.3333 87° East 547 629 37,000  Level Kansas City Center
Fri 09:55:02 PM 39.7317 -94.1461 87° East 546 628 37,000  Level Kansas City Center
Fri 09:56:04 PM 39.7397 -93.9581 87° East 542 624 37,000  Level Kansas City Center
Fri 09:57:05 PM 39.7483 -93.7403 87° East 541 623 37,000  Level Kansas City Center
Fri 09:58:06 PM 39.7544 -93.5700 87° East 548 631 37,000  Level Kansas City Center
Fri 09:59:08 PM 39.7628 -93.3381 87° East 547 629 37,000  Level Kansas City Center
Fri 10:00:09 PM 39.7703 -93.1478 87° East 539 620 37,000  Level Kansas City Center
Fri 10:01:10 PM 39.7778 -92.9572 87° East 538 619 37,000  Level Kansas City Center
Fri 10:02:11 PM 39.7839 -92.7656 88° East 538 619 37,000  Level Kansas City Center
Fri 10:03:13 PM 39.7894 -92.5728 88° East 539 620 37,000  Level Kansas City Center
Fri 10:04:14 PM 39.7947 -92.3797 88° East 539 620 37,000  Level Kansas City Center
Fri 10:05:15 PM 39.8014 -92.1483 88° East 539 620 37,000  Level Kansas City Center
Fri 10:06:16 PM 39.8056 -91.9544 88° East 541 623 37,000  Level Kansas City Center
Fri 10:07:18 PM 39.8106 -91.7592 88° East 542 624 37,000  Level Kansas City Center
Fri 10:08:19 PM 39.8167 -91.5636 88° East 544 626 37,000  Level Kansas City Center
Fri 10:09:20 PM 39.8197 -91.3681 89° East 544 626 37,000  Level Kansas City Center
Fri 10:12:52 PM 39.8323 -90.6449 89° East 546 628 37,000 192 Level FlightAware ADS-B
Fri 10:18:10 PM 39.8427 -89.6135 90° East 536 617 38,700 310 Climbing FlightAware ADS-B
Fri 10:18:40 PM 39.8432 -89.5158 90° East 539 620 38,800 231 Climbing FlightAware ADS-B
Fri 10:19:28 PM 39.8439 -89.3649 90° East 541 623 39,000 150 Climbing FlightAware ADS-B
Fri 10:20:00 PM 39.8442 -89.2572 90° East 544 626 39,000  Level FlightAware ADS-B
Fri 10:20:30 PM 39.8443 -89.1659 90° East 544 626 39,000  Level FlightAware ADS-B
Fri 10:21:06 PM 39.8443 -89.1707 90° East 542 624 39,000  Level FlightAware ADS-B
Fri 10:21:51 PM 39.8445 -88.9239 90° East 537 618 39,000  Level FlightAware ADS-B
Fri 10:22:22 PM 39.8444 -88.7956 90° East 535 616 39,000  Level FlightAware ADS-B
Fri 10:23:58 PM 39.8435 -88.4908 90° East 536 617 39,000  Level FlightAware ADS-B
Fri 10:24:32 PM 39.8430 -88.3863 90° East 537 618 39,000  Level FlightAware ADS-B
Fri 10:25:42 PM 39.8415 -88.1558 91° East 537 618 39,000 56 Level FlightAware ADS-B
Fri 10:26:20 PM 39.8405 -88.0302 91° East 536 617 39,100 87 Climbing FlightAware ADS-B
Fri 10:26:51 PM 39.8398 -87.9460 91° East 534 615 39,100 -91 Level FlightAware ADS-B
Fri 10:27:26 PM 39.8387 -87.8260 91° East 532 612 39,000 -87 Descending FlightAware ADS-B
Fri 10:28:00 PM 39.8380 -87.7591 91° East 532 612 39,000  Level FlightAware ADS-B
Fri 10:28:31 PM 39.8369 -87.6557 91° East 532 612 39,000  Level FlightAware ADS-B
Fri 10:29:29 PM 39.8339 -87.4265 91° East 531 611 39,000  Level FlightAware ADS-B
Fri 10:30:01 PM 39.8327 -87.3457 91° East 530 610 39,000  Level FlightAware ADS-B
Fri 10:30:37 PM 39.8307 -87.2164 91° East 529 609 39,000  Level FlightAware ADS-B
Fri 10:31:29 PM 39.8281 -87.0453 91° East 528 608 39,000  Level FlightAware ADS-B
Fri 10:32:08 PM 39.8266 -86.9590 91° East 527 606 39,000  Level FlightAware ADS-B
Fri 10:32:52 PM 39.8237 -86.7874 91° East 527 606 39,000  Level FlightAware ADS-B
Fri 10:33:34 PM 39.8212 -86.6519 92° East 529 609 39,000  Level FlightAware ADS-B
Fri 10:34:15 PM 39.8185 -86.5252 92° East 530 610 39,000  Level FlightAware ADS-B
Fri 10:34:40 PM 39.8183 -86.5123 75° East 517 595 39,000  Level FlightAware ADS-B
Fri 10:37:13 PM 39.8220 -86.6951 75° East 515 593 39,000  Level FlightAware ADS-B
Fri 10:38:07 PM 39.9231 -85.8597 75° East 518 596 39,000  Level Indianapolis Center
Fri 10:39:08 PM 39.9672 -85.6458 75° East 515 593 39,000  Level Indianapolis Center
Fri 10:40:09 PM 40.0047 -85.4669 75° East 514 592 39,000  Level Indianapolis Center
Fri 10:41:09 PM 40.0675 -85.3039 63° Northeast 502 578 39,000  Level Indianapolis Center
Fri 10:42:10 PM 40.1269 -85.1394 65° Northeast 502 578 39,000  Level Indianapolis Center
Fri 10:43:11 PM 40.1897 -84.9767 63° Northeast 502 578 39,000  Level Indianapolis Center
Fri 10:44:12 PM 40.2478 -84.8269 63° Northeast 502 578 39,000  Level Indianapolis Center
Fri 10:45:13 PM 40.3075 -84.6619 65° Northeast 502 578 39,000  Level Indianapolis Center
Fri 10:46:14 PM 40.3697 -84.4981 63° Northeast 502 578 39,000  Level Indianapolis Center
Fri 10:47:15 PM 40.4306 -84.3328 64° Northeast 502 578 39,000  Level Indianapolis Center
Fri 10:48:16 PM 40.4917 -84.1667 64° Northeast 502 578 39,000  Level Indianapolis Center
Fri 10:49:17 PM 40.5650 -83.9686 64° Northeast 502 578 39,000  Level Indianapolis Center
Fri 10:50:18 PM 40.6244 -83.8036 65° Northeast 501 577 39,000  Level Indianapolis Center
Fri 10:51:19 PM 40.6844 -83.6403 64° Northeast 499 574 39,000  Level Indianapolis Center
Fri 10:52:19 PM 40.7433 -83.4753 65° Northeast 499 574 39,000  Level Indianapolis Center
Fri 10:53:20 PM 40.7833 -83.3078 72° East 499 574 39,000  Level Indianapolis Center
Fri 10:54:21 PM 40.8231 -83.1256 74° East 510 587 39,000  Level Indianapolis Center
Fri 10:55:22 PM 40.8633 -82.9433 74° East 510 587 39,000  Level Indianapolis Center
Fri 10:56:12 PM 40.8961 -82.7933 74° East 511 588 39,000  Level Cleveland Center
Fri 10:57:13 PM 40.9364 -82.6117 74° East 511 588 39,000  Level Cleveland Center
Fri 11:02:58 PM 41.1606 -81.5636 75° East 507 583 39,000  Level FlightAware ADS-B (EPLB / LUZ)
Fri 11:03:37 PM 41.1856 -81.4428 75° East 508 585 39,000  Level FlightAware ADS-B (EPLB / LUZ)
Fri 11:04:23 PM 41.2144 -81.3031 75° East 510 587 39,000  Level FlightAware ADS-B (EPLB / LUZ)
Fri 11:05:19 PM 41.2429 -81.1643 75° East 510 587 39,000  Level FlightAware ADS-B (EPLB / LUZ)
Fri 11:06:04 PM 41.2768 -80.9975 75° East 510 587 39,000  Level FlightAware ADS-B (EPLB / LUZ)
Fri 11:06:35 PM 41.2926 -80.9194 75° East 512 589 39,000  Level FlightAware ADS-B (EPLB / LUZ)
Fri 11:07:08 PM 41.3112 -80.8267 75° East 513 590 39,000  Level FlightAware ADS-B (EPLB / LUZ)
Fri 11:08:50 PM 41.3687 -80.5388 75° East 515 593 39,000  Level FlightAware ADS-B (EPLB / LUZ)
Fri 11:11:37 PM 41.4757 -79.9907 76° East 514 592 39,000  Level FlightAware ADS-B (EPLB / LUZ)
Fri 11:12:58 PM 41.5246 -79.7351 76° East 514 592 39,000  Level FlightAware ADS-B (EPLB / LUZ)
Fri 11:13:52 PM 41.5563 -79.5680 76° East 515 593 39,000  Level FlightAware ADS-B (EPLB / LUZ)
Fri 11:15:19 PM 41.6066 -79.2980 76° East 516 594 39,000  Level FlightAware ADS-B (EPLB / LUZ)
Fri 11:16:35 PM 41.6454 -79.0877 80° East 519 597 39,000  Level FlightAware ADS-B (EPLB / LUZ)
Fri 11:17:09 PM 41.6528 -78.9748 89° East 521 600 39,000  Level FlightAware ADS-B (EPLB / LUZ)
Fri 11:20:05 PM 41.6641 -78.3868 89° East 520 598 39,000  Level FlightAware ADS-B (KWWD)
Fri 11:20:43 PM 41.6662 -78.2650 90° East 520 598 39,000  Level FlightAware ADS-B (KWWD)
Fri 11:21:15 PM 41.6678 -78.1625 90° East 520 598 39,000  Level FlightAware ADS-B (KWWD)
Fri 11:21:45 PM 41.6694 -78.0641 90° East 520 598 39,000  Level FlightAware ADS-B (KWWD)
Fri 11:22:15 PM 41.6709 -77.9716 90° East 520 598 39,000  Level FlightAware ADS-B (KWWD)
Fri 11:22:46 PM 41.6723 -77.8689 90° East 521 600 39,000  Level FlightAware ADS-B (KWWD)
Fri 11:23:26 PM 41.6737 -77.7413 90° East 522 601 39,000  Level FlightAware ADS-B (KWWD)
Fri 11:25:43 PM 41.6777 -77.2989 89° East 523 602 39,000  Level FlightAware ADS-B (KWWD)
Fri 11:26:16 PM 41.6718 -77.1951 97° East 524 603 39,000 82 Level FlightAware ADS-B (KWWD)
Fri 11:26:56 PM 41.6531 -77.0678 104° East 520 598 39,100  Climbing FlightAware ADS-B (KWWD)
Fri 11:27:26 PM 41.6312 -76.9756 110° East 515 593 39,000 -86 Descending FlightAware ADS-B (KWWD)
Fri 11:28:06 PM 41.5989 -76.8575 110° East 514 592 39,000  Level FlightAware ADS-B (KWWD)
Fri 11:28:40 PM 41.5713 -76.7562 110° East 512 589 39,000  Level FlightAware ADS-B (KWWD)
Fri 11:29:13 PM 41.5532 -76.6905 110° East 512 589 39,000  Level FlightAware ADS-B
Fri 11:29:56 PM 41.5091 -76.5303 110° East 512 589 39,000 -659 Level FlightAware ADS-B (KWWD)
Fri 11:30:35 PM 41.4772 -76.4150 110° East 517 595 38,100 -1,429 Descending FlightAware ADS-B (KWWD)
Fri 11:30:38 PM 41.4792 -76.4221 110° East 518 596 38,000 -2,143 Descending FlightAware ADS-B (EPLB / LUZ)
Fri 11:31:17 PM 41.4430 -76.2924 110° East 508 585 36,600 -1,769 Descending FlightAware ADS-B (KWWD)
Fri 11:31:56 PM 41.4113 -76.1783 110° East 497 572 35,700 -1,371 Descending FlightAware ADS-B (KWWD)
Fri 11:32:27 PM 41.3860 -76.0880 110° East 496 571 35,000 -1,371 Descending FlightAware ADS-B (KWWD)
Fri 11:33:06 PM 41.3547 -75.9767 111° Southeast 503 579 34,100 -1,371 Descending FlightAware ADS-B (KWWD)
Fri 11:33:37 PM 41.3294 -75.8880 111° Southeast 504 580 33,400 -1,770 Descending FlightAware ADS-B (KWWD)
Fri 11:34:07 PM 41.3049 -75.8017 111° Southeast 496 571 32,300 -3,000 Descending FlightAware ADS-B (KWWD)
Fri 11:34:37 PM 41.2803 -75.7151 111° Southeast 501 577 30,400 -3,818 Descending FlightAware ADS-B (KWWD)
Fri 11:35:13 PM 41.2479 -75.6139 113° Southeast 502 578 28,100 -3,300 Descending FlightAware ADS-B (KWWD)
Fri 11:36:17 PM 41.1882 -75.4354 113° Southeast 487 560 24,900 -2,936 Descending FlightAware ADS-B (KWWD)
Fri 11:36:47 PM 41.1607 -75.3533 114° Southeast 486 559 23,500 -1,839 Descending FlightAware ADS-B (KWWD)
Fri 11:37:19 PM 41.1319 -75.2678 114° Southeast 484 557 23,000 -441 Descending FlightAware ADS-B (KWWD)
Fri 11:37:55 PM 41.0987 -75.1693 114° Southeast 481 554 23,000 -265 Level FlightAware ADS-B (KWWD)
Fri 11:38:27 PM 41.0693 -75.0827 114° Southeast 478 550 22,700 -545 Descending FlightAware ADS-B (KWWD)
Fri 11:39:01 PM 41.0386 -74.9926 114° Southeast 477 549 22,400 -507 Descending FlightAware ADS-B (KWWD)
Fri 11:39:38 PM 41.0053 -74.8949 114° Southeast 473 544 22,100 -455 Descending FlightAware ADS-B (KWWD)
Fri 11:40:07 PM 40.9900 -74.8133 98° East 472 543 21,900 -400 Descending FlightAware ADS-B (KWWD)
Fri 11:40:38 PM 40.9811 -74.7268 98° East 470 541 21,700 -429 Descending FlightAware ADS-B (KWWD)
Fri 11:41:17 PM 40.9689 -74.6147 98° East 466 536 21,400 -514 Descending FlightAware ADS-B (KWWD)
Fri 11:41:48 PM 40.9595 -74.5296 98° East 464 534 21,100 -484 Descending FlightAware ADS-B (KWWD)
Fri 11:42:19 PM 40.9500 -74.4444 98° East 461 531 20,900 -522 Descending FlightAware ADS-B (KSNC)
Fri 11:42:57 PM 40.9368 -74.3363 103° East 458 527 20,500 -915 Descending FlightAware ADS-B (KWWD)
Fri 11:43:18 PM 40.9216 -74.2831 114° Southeast 445 512 20,000 -1,647 Descending FlightAware ADS-B (KWWD)
Fri 11:43:48 PM 40.8950 -74.2103 116° Southeast 443 510 19,100 -870 Descending FlightAware ADS-B (KWWD)
Fri 11:44:27 PM 40.8592 -74.1149 116° Southeast 442 509 19,000 -171 Descending FlightAware ADS-B (KWWD)
Fri 11:44:58 PM 40.8316 -74.0415 116° Southeast 439 505 18,900 -1,437 Descending FlightAware ADS-B (KWWD)
Fri 11:45:38 PM 40.7928 -73.9472 128° Southeast 429 494 17,300 -2,478 Descending FlightAware ADS-B (KWWD)
Fri 11:45:44 PM 40.7854 -73.9367 139° Southeast 423 487 17,000 -2,154 Descending FlightAware ADS-B (KWWD)
Fri 11:46:17 PM 40.7488 -73.9001 145° Southeast 409 471 15,900 -2,377 Descending FlightAware ADS-B (KSNC)
Fri 11:46:37 PM 40.7010 -73.8663 160° South 391 450 14,900 -2,885 Descending FlightAware ADS-B (KWWD)
Fri 11:47:09 PM 40.6452 -73.8450 164° South 389 448 13,400 -2,667 Descending FlightAware ADS-B (KWWD)
Fri 11:47:49 PM 40.5774 -73.8107 146° Southeast 392 451 11,700 -2,571 Descending FlightAware ADS-B (KWWD)
Fri 11:47:58 PM 40.5663 -73.7974 133° Southeast 384 442 11,300 -3,474 Descending FlightAware ADS-B (KWWD)
Fri 11:48:08 PM 40.5551 -73.7776 120° Southeast 385 443 10,600 -3,130 Descending FlightAware ADS-B (KWWD)
Fri 11:48:21 PM 40.5474 -73.7505 135° Southeast 390 449 10,100 -1,588 Descending FlightAware ADS-B
Fri 11:48:42 PM 40.5485 -73.7060 72° East 331 381 9,700 -1,400 Descending FlightAware ADS-B (KSNC)
Fri 11:49:21 PM 40.5485 -73.7060 70° East 308 354 8,700 -1,727 Descending FlightAware ADS-B (KSNC)
Fri 11:49:48 PM 40.5485 -73.7060 40° Northeast 293 337 7,800 -1,569 Descending FlightAware ADS-B (KSNC)
Fri 11:51:54 PM 40.7273 -73.4893 356° North 256 295 4,700 -1,433 Descending FlightAware ADS-B (KSNC)
Fri 11:52:48 PM 40.7273 -73.4893 300° West 221 254 3,500 -927 Descending FlightAware ADS-B (KSNC)
Fri 11:53:44 PM 40.7833 -73.6000 300° West 213 245 3,000 -246 Descending New York TRACON
Fri 11:54:50 PM 40.7667 -73.6667 252° West 178 205 3,000 -455 Level New York TRACON
Fri 11:55:56 PM 40.7167 -73.7000 207° Southwest 140 161 2,000 -857 Descending New York TRACON
Fri 11:56:56 PM 40.6833 -73.7167 201° Southwest 126 145 1,200 -750 Descending New York TRACON
Fri 11:57:56 PM 40.6667 -73.7500 237° Southwest 127 146 500 -700 Descending New York TRACON

Login

Don't have an account? Register now (free) for customized features, flight alerts, and more!